sensor_id;sensor_type;location;lat;lon;timestamp;P1;durP1;ratioP1;P2;durP2;ratioP2
43124;SDS011;49182;50.788;7.318;2024-01-15T00:00:03;14.63;;;5.82;;
43124;SDS011;49182;50.788;7.318;2024-01-15T00:05:10;13.13;;;6.38;;
43124;SDS011;49182;50.788;7.318;2024-01-15T00:10:13;12.32;;;6.88;;
43124;SDS011;49182;50.788;7.318;2024-01-15T00:15:15;10.77;;;5.97;;
43124;SDS011;49182;50.788;7.318;2024-01-15T00:20:17;13.50;;;6.78;;
43124;SDS011;49182;50.788;7.318;2024-01-15T00:25:20;19.17;;;8.10;;
43124;SDS011;49182;50.788;7.318;2024-01-15T00:30:22;12.32;;;6.63;;
43124;SDS011;49182;50.788;7.318;2024-01-15T00:35:23;14.55;;;8.38;;
43124;SDS011;49182;50.788;7.318;2024-01-15T00:40:26;13.90;;;6.75;;
43124;SDS011;49182;50.788;7.318;2024-01-15T00:45:28;10.93;;;5.88;;
43124;SDS011;49182;50.788;7.318;2024-01-15T00:50:30;14.65;;;6.82;;
43124;SDS011;49182;50.788;7.318;2024-01-15T00:55:33;11.10;;;4.68;;
43124;SDS011;49182;50.788;7.318;2024-01-15T01:00:34;15.50;;;8.75;;
43124;SDS011;49182;50.788;7.318;2024-01-15T01:05:36;12.60;;;5.82;;
43124;SDS011;49182;50.788;7.318;2024-01-15T01:10:40;14.63;;;7.18;;
43124;SDS011;49182;50.788;7.318;2024-01-15T01:15:41;18.90;;;9.07;;
43124;SDS011;49182;50.788;7.318;2024-01-15T01:20:43;11.23;;;6.22;;
43124;SDS011;49182;50.788;7.318;2024-01-15T01:25:46;11.32;;;5.65;;
43124;SDS011;49182;50.788;7.318;2024-01-15T01:30:48;17.30;;;7.35;;
43124;SDS011;49182;50.788;7.318;2024-01-15T01:35:50;11.35;;;5.63;;
43124;SDS011;49182;50.788;7.318;2024-01-15T01:40:53;17.05;;;7.32;;
43124;SDS011;49182;50.788;7.318;2024-01-15T01:45:55;10.45;;;6.53;;
43124;SDS011;49182;50.788;7.318;2024-01-15T01:50:59;15.65;;;6.43;;
43124;SDS011;49182;50.788;7.318;2024-01-15T01:56:06;13.82;;;6.72;;
43124;SDS011;49182;50.788;7.318;2024-01-15T02:01:09;16.85;;;6.80;;
43124;SDS011;49182;50.788;7.318;2024-01-15T02:06:11;10.70;;;6.22;;
43124;SDS011;49182;50.788;7.318;2024-01-15T02:11:14;14.35;;;7.35;;
43124;SDS011;49182;50.788;7.318;2024-01-15T02:16:16;16.05;;;7.55;;
43124;SDS011;49182;50.788;7.318;2024-01-15T02:21:18;14.77;;;7.30;;
43124;SDS011;49182;50.788;7.318;2024-01-15T02:26:21;13.95;;;6.30;;
43124;SDS011;49182;50.788;7.318;2024-01-15T02:31:23;10.45;;;6.18;;
43124;SDS011;49182;50.788;7.318;2024-01-15T02:36:25;14.98;;;6.20;;
43124;SDS011;49182;50.788;7.318;2024-01-15T02:41:28;15.27;;;7.68;;
43124;SDS011;49182;50.788;7.318;2024-01-15T02:46:30;10.10;;;6.75;;
43124;SDS011;49182;50.788;7.318;2024-01-15T02:51:31;16.80;;;7.03;;
43124;SDS011;49182;50.788;7.318;2024-01-15T02:56:34;19.55;;;7.18;;
43124;SDS011;49182;50.788;7.318;2024-01-15T03:01:38;13.13;;;7.00;;
43124;SDS011;49182;50.788;7.318;2024-01-15T03:06:40;17.83;;;7.75;;
43124;SDS011;49182;50.788;7.318;2024-01-15T03:11:43;14.68;;;8.10;;
43124;SDS011;49182;50.788;7.318;2024-01-15T03:16:45;18.27;;;7.78;;
43124;SDS011;49182;50.788;7.318;2024-01-15T03:21:46;14.82;;;7.03;;
43124;SDS011;49182;50.788;7.318;2024-01-15T03:26:50;15.57;;;6.90;;
43124;SDS011;49182;50.788;7.318;2024-01-15T03:31:51;21.90;;;7.78;;
43124;SDS011;49182;50.788;7.318;2024-01-15T03:36:53;16.38;;;7.70;;
43124;SDS011;49182;50.788;7.318;2024-01-15T03:41:56;16.65;;;7.60;;
43124;SDS011;49182;50.788;7.318;2024-01-15T03:46:58;16.77;;;7.57;;
43124;SDS011;49182;50.788;7.318;2024-01-15T03:52:00;18.17;;;9.48;;
43124;SDS011;49182;50.788;7.318;2024-01-15T03:57:03;14.13;;;7.75;;
43124;SDS011;49182;50.788;7.318;2024-01-15T04:02:05;17.92;;;8.23;;
43124;SDS011;49182;50.788;7.318;2024-01-15T04:07:07;13.25;;;6.40;;
43124;SDS011;49182;50.788;7.318;2024-01-15T04:12:10;11.18;;;5.82;;
43124;SDS011;49182;50.788;7.318;2024-01-15T04:17:12;11.45;;;5.80;;
43124;SDS011;49182;50.788;7.318;2024-01-15T04:22:13;10.02;;;6.03;;
43124;SDS011;49182;50.788;7.318;2024-01-15T04:27:17;11.55;;;6.70;;
43124;SDS011;49182;50.788;7.318;2024-01-15T04:32:18;12.82;;;7.43;;
43124;SDS011;49182;50.788;7.318;2024-01-15T04:37:20;16.98;;;9.27;;
43124;SDS011;49182;50.788;7.318;2024-01-15T04:42:23;17.58;;;7.97;;
43124;SDS011;49182;50.788;7.318;2024-01-15T04:47:25;12.18;;;7.85;;
43124;SDS011;49182;50.788;7.318;2024-01-15T04:52:27;12.63;;;7.03;;
43124;SDS011;49182;50.788;7.318;2024-01-15T04:57:30;16.35;;;6.65;;
43124;SDS011;49182;50.788;7.318;2024-01-15T05:02:32;11.98;;;6.18;;
43124;SDS011;49182;50.788;7.318;2024-01-15T05:07:33;12.45;;;6.72;;
43124;SDS011;49182;50.788;7.318;2024-01-15T05:12:36;13.52;;;6.80;;
43124;SDS011;49182;50.788;7.318;2024-01-15T05:17:38;13.82;;;7.80;;
43124;SDS011;49182;50.788;7.318;2024-01-15T05:22:40;13.55;;;7.07;;
43124;SDS011;49182;50.788;7.318;2024-01-15T05:27:43;9.77;;;5.40;;
43124;SDS011;49182;50.788;7.318;2024-01-15T05:32:45;13.20;;;6.18;;
43124;SDS011;49182;50.788;7.318;2024-01-15T05:37:46;11.18;;;5.03;;
43124;SDS011;49182;50.788;7.318;2024-01-15T05:42:49;11.38;;;5.47;;
43124;SDS011;49182;50.788;7.318;2024-01-15T05:47:51;8.70;;;5.50;;
43124;SDS011;49182;50.788;7.318;2024-01-15T05:52:53;10.30;;;5.40;;
43124;SDS011;49182;50.788;7.318;2024-01-15T05:57:56;7.57;;;4.53;;
43124;SDS011;49182;50.788;7.318;2024-01-15T06:02:58;15.02;;;6.53;;
43124;SDS011;49182;50.788;7.318;2024-01-15T06:08:00;11.20;;;5.90;;
43124;SDS011;49182;50.788;7.318;2024-01-15T06:13:03;8.82;;;4.57;;
43124;SDS011;49182;50.788;7.318;2024-01-15T06:18:06;7.45;;;4.18;;
43124;SDS011;49182;50.788;7.318;2024-01-15T06:23:08;10.88;;;5.85;;
43124;SDS011;49182;50.788;7.318;2024-01-15T06:28:11;8.38;;;5.30;;
43124;SDS011;49182;50.788;7.318;2024-01-15T06:33:13;10.38;;;5.25;;
43124;SDS011;49182;50.788;7.318;2024-01-15T06:38:15;9.27;;;4.70;;
43124;SDS011;49182;50.788;7.318;2024-01-15T06:43:18;9.52;;;5.68;;
43124;SDS011;49182;50.788;7.318;2024-01-15T06:48:19;11.23;;;6.68;;
43124;SDS011;49182;50.788;7.318;2024-01-15T06:53:21;7.78;;;4.60;;
43124;SDS011;49182;50.788;7.318;2024-01-15T06:58:24;9.95;;;5.45;;
43124;SDS011;49182;50.788;7.318;2024-01-15T07:03:26;10.82;;;4.82;;
43124;SDS011;49182;50.788;7.318;2024-01-15T07:08:28;10.98;;;4.70;;
43124;SDS011;49182;50.788;7.318;2024-01-15T07:13:31;13.38;;;5.15;;
43124;SDS011;49182;50.788;7.318;2024-01-15T07:18:33;12.07;;;4.50;;
43124;SDS011;49182;50.788;7.318;2024-01-15T07:23:35;12.18;;;6.20;;
43124;SDS011;49182;50.788;7.318;2024-01-15T07:28:38;11.98;;;4.72;;
43124;SDS011;49182;50.788;7.318;2024-01-15T07:33:39;9.95;;;5.90;;
43124;SDS011;49182;50.788;7.318;2024-01-15T07:38:41;16.30;;;8.13;;
43124;SDS011;49182;50.788;7.318;2024-01-15T07:43:44;14.18;;;5.60;;
43124;SDS011;49182;50.788;7.318;2024-01-15T07:48:46;13.77;;;6.18;;
43124;SDS011;49182;50.788;7.318;2024-01-15T07:53:48;15.13;;;8.35;;
43124;SDS011;49182;50.788;7.318;2024-01-15T07:58:51;17.98;;;9.10;;
43124;SDS011;49182;50.788;7.318;2024-01-15T08:03:53;15.48;;;6.78;;
43124;SDS011;49182;50.788;7.318;2024-01-15T08:08:55;14.50;;;6.35;;
43124;SDS011;49182;50.788;7.318;2024-01-15T08:13:58;22.25;;;9.00;;
43124;SDS011;49182;50.788;7.318;2024-01-15T08:19:00;10.05;;;4.47;;
43124;SDS011;49182;50.788;7.318;2024-01-15T08:24:02;13.82;;;6.45;;
43124;SDS011;49182;50.788;7.318;2024-01-15T08:29:05;14.90;;;7.97;;
43124;SDS011;49182;50.788;7.318;2024-01-15T08:34:07;11.45;;;5.50;;
43124;SDS011;49182;50.788;7.318;2024-01-15T08:39:09;13.18;;;7.03;;
43124;SDS011;49182;50.788;7.318;2024-01-15T08:44:12;9.55;;;6.22;;
43124;SDS011;49182;50.788;7.318;2024-01-15T08:49:14;13.15;;;5.95;;
43124;SDS011;49182;50.788;7.318;2024-01-15T08:54:16;16.85;;;6.50;;
43124;SDS011;49182;50.788;7.318;2024-01-15T08:59:19;14.68;;;6.15;;
43124;SDS011;49182;50.788;7.318;2024-01-15T09:04:20;9.00;;;4.72;;
43124;SDS011;49182;50.788;7.318;2024-01-15T09:09:22;15.40;;;7.97;;
43124;SDS011;49182;50.788;7.318;2024-01-15T09:14:26;15.52;;;7.20;;
43124;SDS011;49182;50.788;7.318;2024-01-15T09:19:37;13.85;;;6.20;;
43124;SDS011;49182;50.788;7.318;2024-01-15T09:24:40;17.95;;;7.07;;
43124;SDS011;49182;50.788;7.318;2024-01-15T09:29:43;11.60;;;4.80;;
43124;SDS011;49182;50.788;7.318;2024-01-15T09:34:45;13.02;;;6.50;;
43124;SDS011;49182;50.788;7.318;2024-01-15T09:39:47;7.63;;;4.68;;
43124;SDS011;49182;50.788;7.318;2024-01-15T09:44:50;6.13;;;4.25;;
43124;SDS011;49182;50.788;7.318;2024-01-15T09:49:52;12.77;;;5.80;;
43124;SDS011;49182;50.788;7.318;2024-01-15T09:54:54;10.70;;;4.75;;
43124;SDS011;49182;50.788;7.318;2024-01-15T09:59:57;9.98;;;4.65;;
43124;SDS011;49182;50.788;7.318;2024-01-15T10:05:04;5.13;;;3.05;;
43124;SDS011;49182;50.788;7.318;2024-01-15T10:10:06;11.48;;;4.72;;
43124;SDS011;49182;50.788;7.318;2024-01-15T10:15:10;6.47;;;3.85;;
43124;SDS011;49182;50.788;7.318;2024-01-15T10:20:12;5.90;;;3.70;;
43124;SDS011;49182;50.788;7.318;2024-01-15T10:25:14;9.40;;;5.18;;
43124;SDS011;49182;50.788;7.318;2024-01-15T10:30:17;5.57;;;3.92;;
43124;SDS011;49182;50.788;7.318;2024-01-15T10:35:21;8.68;;;5.85;;
43124;SDS011;49182;50.788;7.318;2024-01-15T10:40:24;5.00;;;3.85;;
43124;SDS011;49182;50.788;7.318;2024-01-15T10:45:27;6.75;;;4.53;;
43124;SDS011;49182;50.788;7.318;2024-01-15T10:50:29;9.05;;;5.70;;
43124;SDS011;49182;50.788;7.318;2024-01-15T10:55:31;6.90;;;3.97;;
43124;SDS011;49182;50.788;7.318;2024-01-15T11:00:34;6.00;;;3.72;;
43124;SDS011;49182;50.788;7.318;2024-01-15T11:10:39;5.50;;;2.83;;
43124;SDS011;49182;50.788;7.318;2024-01-15T11:15:55;7.90;;;4.53;;
43124;SDS011;49182;50.788;7.318;2024-01-15T11:21:20;7.43;;;4.75;;
43124;SDS011;49182;50.788;7.318;2024-01-15T11:26:32;6.45;;;4.30;;
43124;SDS011;49182;50.788;7.318;2024-01-15T11:37:12;8.32;;;3.95;;
43124;SDS011;49182;50.788;7.318;2024-01-15T11:42:14;7.70;;;4.32;;
43124;SDS011;49182;50.788;7.318;2024-01-15T11:47:21;5.40;;;4.63;;
43124;SDS011;49182;50.788;7.318;2024-01-15T11:52:46;6.10;;;4.43;;
43124;SDS011;49182;50.788;7.318;2024-01-15T11:57:57;6.03;;;4.32;;
43124;SDS011;49182;50.788;7.318;2024-01-15T12:03:04;7.03;;;4.80;;
43124;SDS011;49182;50.788;7.318;2024-01-15T12:08:06;8.80;;;5.10;;
43124;SDS011;49182;50.788;7.318;2024-01-15T12:13:09;8.25;;;4.05;;
43124;SDS011;49182;50.788;7.318;2024-01-15T12:18:14;9.23;;;4.80;;
43124;SDS011;49182;50.788;7.318;2024-01-15T12:23:17;10.38;;;5.53;;
43124;SDS011;49182;50.788;7.318;2024-01-15T12:28:19;4.90;;;3.92;;
43124;SDS011;49182;50.788;7.318;2024-01-15T12:33:22;11.10;;;5.82;;
43124;SDS011;49182;50.788;7.318;2024-01-15T12:38:24;9.63;;;6.00;;
43124;SDS011;49182;50.788;7.318;2024-01-15T12:43:26;9.45;;;4.68;;
43124;SDS011;49182;50.788;7.318;2024-01-15T12:48:29;8.57;;;5.38;;
43124;SDS011;49182;50.788;7.318;2024-01-15T12:53:31;13.80;;;5.55;;
43124;SDS011;49182;50.788;7.318;2024-01-15T12:58:33;8.95;;;6.00;;
43124;SDS011;49182;50.788;7.318;2024-01-15T13:03:36;9.68;;;6.45;;
43124;SDS011;49182;50.788;7.318;2024-01-15T13:08:38;36.30;;;18.38;;
43124;SDS011;49182;50.788;7.318;2024-01-15T13:13:39;11.75;;;7.70;;
43124;SDS011;49182;50.788;7.318;2024-01-15T13:18:42;8.32;;;5.05;;
43124;SDS011;49182;50.788;7.318;2024-01-15T13:23:44;7.25;;;3.95;;
43124;SDS011;49182;50.788;7.318;2024-01-15T13:28:46;7.10;;;4.93;;
43124;SDS011;49182;50.788;7.318;2024-01-15T13:33:49;21.77;;;13.02;;
43124;SDS011;49182;50.788;7.318;2024-01-15T13:38:51;14.30;;;7.60;;
43124;SDS011;49182;50.788;7.318;2024-01-15T13:43:53;12.73;;;8.15;;
43124;SDS011;49182;50.788;7.318;2024-01-15T13:48:57;11.68;;;6.25;;
43124;SDS011;49182;50.788;7.318;2024-01-15T13:53:59;5.50;;;3.13;;
43124;SDS011;49182;50.788;7.318;2024-01-15T13:59:01;5.35;;;3.28;;
43124;SDS011;49182;50.788;7.318;2024-01-15T14:04:04;6.88;;;3.95;;
43124;SDS011;49182;50.788;7.318;2024-01-15T14:09:05;4.97;;;2.22;;
43124;SDS011;49182;50.788;7.318;2024-01-15T14:14:07;9.73;;;3.63;;
43124;SDS011;49182;50.788;7.318;2024-01-15T14:19:10;13.82;;;6.50;;
43124;SDS011;49182;50.788;7.318;2024-01-15T14:24:12;5.55;;;3.63;;
43124;SDS011;49182;50.788;7.318;2024-01-15T14:29:14;5.78;;;4.93;;
43124;SDS011;49182;50.788;7.318;2024-01-15T14:34:17;13.73;;;5.55;;
43124;SDS011;49182;50.788;7.318;2024-01-15T14:39:18;4.35;;;3.05;;
43124;SDS011;49182;50.788;7.318;2024-01-15T14:44:22;13.38;;;3.78;;
43124;SDS011;49182;50.788;7.318;2024-01-15T14:49:25;9.57;;;6.25;;
43124;SDS011;49182;50.788;7.318;2024-01-15T14:54:27;10.05;;;6.07;;
43124;SDS011;49182;50.788;7.318;2024-01-15T14:59:28;12.40;;;5.13;;
43124;SDS011;49182;50.788;7.318;2024-01-15T15:04:32;5.65;;;3.85;;
43124;SDS011;49182;50.788;7.318;2024-01-15T15:09:34;5.82;;;3.08;;
43124;SDS011;49182;50.788;7.318;2024-01-15T15:14:35;3.38;;;2.67;;
43124;SDS011;49182;50.788;7.318;2024-01-15T15:19:42;4.10;;;3.47;;
43124;SDS011;49182;50.788;7.318;2024-01-15T15:24:44;4.38;;;2.75;;
43124;SDS011;49182;50.788;7.318;2024-01-15T15:29:46;5.70;;;2.45;;
43124;SDS011;49182;50.788;7.318;2024-01-15T15:34:49;4.65;;;3.15;;
43124;SDS011;49182;50.788;7.318;2024-01-15T15:39:51;5.03;;;2.83;;
43124;SDS011;49182;50.788;7.318;2024-01-15T15:44:53;4.95;;;3.65;;
43124;SDS011;49182;50.788;7.318;2024-01-15T15:50:00;4.88;;;3.88;;
43124;SDS011;49182;50.788;7.318;2024-01-15T15:55:02;4.60;;;3.70;;
43124;SDS011;49182;50.788;7.318;2024-01-15T16:00:05;3.30;;;2.15;;
43124;SDS011;49182;50.788;7.318;2024-01-15T16:05:16;4.60;;;2.20;;
43124;SDS011;49182;50.788;7.318;2024-01-15T16:10:18;3.83;;;2.63;;
43124;SDS011;49182;50.788;7.318;2024-01-15T16:15:20;6.80;;;2.40;;
43124;SDS011;49182;50.788;7.318;2024-01-15T16:20:24;2.80;;;2.42;;
43124;SDS011;49182;50.788;7.318;2024-01-15T16:25:46;3.38;;;2.28;;
43124;SDS011;49182;50.788;7.318;2024-01-15T16:30:48;5.32;;;3.28;;
43124;SDS011;49182;50.788;7.318;2024-01-15T16:35:57;4.07;;;2.33;;
43124;SDS011;49182;50.788;7.318;2024-01-15T16:40:59;7.57;;;3.47;;
43124;SDS011;49182;50.788;7.318;2024-01-15T16:46:01;3.97;;;2.72;;
43124;SDS011;49182;50.788;7.318;2024-01-15T16:51:04;4.40;;;2.13;;
43124;SDS011;49182;50.788;7.318;2024-01-15T16:56:06;3.90;;;3.10;;
43124;SDS011;49182;50.788;7.318;2024-01-15T17:01:07;2.17;;;1.80;;
43124;SDS011;49182;50.788;7.318;2024-01-15T17:06:11;3.67;;;2.17;;
43124;SDS011;49182;50.788;7.318;2024-01-15T17:11:13;4.07;;;2.40;;
43124;SDS011;49182;50.788;7.318;2024-01-15T17:16:14;4.47;;;3.30;;
43124;SDS011;49182;50.788;7.318;2024-01-15T17:21:17;7.15;;;3.25;;
43124;SDS011;49182;50.788;7.318;2024-01-15T17:26:19;3.63;;;3.17;;
43124;SDS011;49182;50.788;7.318;2024-01-15T17:31:21;8.10;;;3.50;;
43124;SDS011;49182;50.788;7.318;2024-01-15T17:36:24;6.93;;;4.05;;
43124;SDS011;49182;50.788;7.318;2024-01-15T17:41:25;4.68;;;3.80;;
43124;SDS011;49182;50.788;7.318;2024-01-15T17:46:27;5.65;;;3.38;;
43124;SDS011;49182;50.788;7.318;2024-01-15T17:51:32;4.18;;;2.55;;
43124;SDS011;49182;50.788;7.318;2024-01-15T17:56:34;5.68;;;3.35;;
43124;SDS011;49182;50.788;7.318;2024-01-15T18:01:36;4.85;;;3.58;;
43124;SDS011;49182;50.788;7.318;2024-01-15T18:06:39;5.03;;;3.40;;
43124;SDS011;49182;50.788;7.318;2024-01-15T18:11:40;13.70;;;5.60;;
43124;SDS011;49182;50.788;7.318;2024-01-15T18:16:42;8.10;;;4.15;;
43124;SDS011;49182;50.788;7.318;2024-01-15T18:21:45;11.48;;;3.58;;
43124;SDS011;49182;50.788;7.318;2024-01-15T18:26:47;8.68;;;3.60;;
43124;SDS011;49182;50.788;7.318;2024-01-15T18:31:52;4.40;;;3.05;;
43124;SDS011;49182;50.788;7.318;2024-01-15T18:36:55;8.85;;;3.95;;
43124;SDS011;49182;50.788;7.318;2024-01-15T18:41:56;5.22;;;3.80;;
43124;SDS011;49182;50.788;7.318;2024-01-15T18:46:58;6.03;;;3.22;;
43124;SDS011;49182;50.788;7.318;2024-01-15T18:52:01;5.13;;;3.67;;
43124;SDS011;49182;50.788;7.318;2024-01-15T18:57:03;4.25;;;2.95;;
43124;SDS011;49182;50.788;7.318;2024-01-15T19:02:05;6.15;;;3.25;;
43124;SDS011;49182;50.788;7.318;2024-01-15T19:07:08;4.90;;;3.22;;
43124;SDS011;49182;50.788;7.318;2024-01-15T19:12:10;7.70;;;3.70;;
43124;SDS011;49182;50.788;7.318;2024-01-15T19:17:12;3.90;;;3.05;;
43124;SDS011;49182;50.788;7.318;2024-01-15T19:22:15;5.65;;;3.38;;
43124;SDS011;49182;50.788;7.318;2024-01-15T19:27:16;6.60;;;3.63;;
43124;SDS011;49182;50.788;7.318;2024-01-15T19:32:18;5.47;;;2.75;;
43124;SDS011;49182;50.788;7.318;2024-01-15T19:37:21;3.17;;;1.95;;
43124;SDS011;49182;50.788;7.318;2024-01-15T19:42:23;6.47;;;2.20;;
43124;SDS011;49182;50.788;7.318;2024-01-15T19:47:24;4.95;;;2.70;;
43124;SDS011;49182;50.788;7.318;2024-01-15T19:52:28;6.00;;;3.25;;
43124;SDS011;49182;50.788;7.318;2024-01-15T19:57:29;5.88;;;3.20;;
43124;SDS011;49182;50.788;7.318;2024-01-15T20:02:31;5.25;;;2.60;;
43124;SDS011;49182;50.788;7.318;2024-01-15T20:07:34;7.68;;;3.35;;
43124;SDS011;49182;50.788;7.318;2024-01-15T20:12:36;4.95;;;2.85;;
43124;SDS011;49182;50.788;7.318;2024-01-15T20:17:40;6.20;;;3.35;;
43124;SDS011;49182;50.788;7.318;2024-01-15T20:22:43;6.60;;;3.80;;
43124;SDS011;49182;50.788;7.318;2024-01-15T20:27:45;7.07;;;3.90;;
43124;SDS011;49182;50.788;7.318;2024-01-15T20:32:46;4.40;;;2.85;;
43124;SDS011;49182;50.788;7.318;2024-01-15T20:37:51;7.60;;;3.55;;
43124;SDS011;49182;50.788;7.318;2024-01-15T20:42:53;15.85;;;5.65;;
43124;SDS011;49182;50.788;7.318;2024-01-15T20:47:55;7.57;;;3.97;;
43124;SDS011;49182;50.788;7.318;2024-01-15T20:52:58;10.93;;;3.83;;
43124;SDS011;49182;50.788;7.318;2024-01-15T20:58:00;6.05;;;3.10;;
43124;SDS011;49182;50.788;7.318;2024-01-15T21:03:02;6.45;;;3.42;;
43124;SDS011;49182;50.788;7.318;2024-01-15T21:08:05;9.88;;;4.53;;
43124;SDS011;49182;50.788;7.318;2024-01-15T21:13:07;9.10;;;4.90;;
43124;SDS011;49182;50.788;7.318;2024-01-15T21:18:08;7.72;;;4.75;;
43124;SDS011;49182;50.788;7.318;2024-01-15T21:23:12;8.60;;;4.15;;
43124;SDS011;49182;50.788;7.318;2024-01-15T21:28:13;6.35;;;3.13;;
43124;SDS011;49182;50.788;7.318;2024-01-15T21:33:15;5.25;;;3.05;;
43124;SDS011;49182;50.788;7.318;2024-01-15T21:38:18;7.97;;;4.43;;
43124;SDS011;49182;50.788;7.318;2024-01-15T21:43:20;15.23;;;4.95;;
43124;SDS011;49182;50.788;7.318;2024-01-15T21:48:21;5.75;;;3.92;;
43124;SDS011;49182;50.788;7.318;2024-01-15T21:53:25;7.60;;;3.28;;
43124;SDS011;49182;50.788;7.318;2024-01-15T21:58:27;5.53;;;3.85;;
43124;SDS011;49182;50.788;7.318;2024-01-15T22:03:28;6.47;;;3.90;;
43124;SDS011;49182;50.788;7.318;2024-01-15T22:08:31;4.63;;;2.70;;
43124;SDS011;49182;50.788;7.318;2024-01-15T22:13:33;7.60;;;3.83;;
43124;SDS011;49182;50.788;7.318;2024-01-15T22:18:35;6.20;;;3.72;;
43124;SDS011;49182;50.788;7.318;2024-01-15T22:23:38;5.97;;;3.47;;
43124;SDS011;49182;50.788;7.318;2024-01-15T22:28:41;5.35;;;3.67;;
43124;SDS011;49182;50.788;7.318;2024-01-15T22:33:42;6.15;;;3.10;;
43124;SDS011;49182;50.788;7.318;2024-01-15T22:38:46;8.98;;;3.80;;
43124;SDS011;49182;50.788;7.318;2024-01-15T22:43:48;9.80;;;4.88;;
43124;SDS011;49182;50.788;7.318;2024-01-15T22:48:49;8.35;;;3.80;;
43124;SDS011;49182;50.788;7.318;2024-01-15T22:53:53;6.22;;;3.35;;
43124;SDS011;49182;50.788;7.318;2024-01-15T22:58:55;7.35;;;4.45;;
43124;SDS011;49182;50.788;7.318;2024-01-15T23:03:57;7.57;;;3.70;;
43124;SDS011;49182;50.788;7.318;2024-01-15T23:09:00;6.28;;;3.08;;
43124;SDS011;49182;50.788;7.318;2024-01-15T23:14:01;5.60;;;3.70;;
43124;SDS011;49182;50.788;7.318;2024-01-15T23:19:03;7.68;;;3.88;;
43124;SDS011;49182;50.788;7.318;2024-01-15T23:24:07;5.53;;;3.50;;
43124;SDS011;49182;50.788;7.318;2024-01-15T23:29:08;8.57;;;4.57;;
43124;SDS011;49182;50.788;7.318;2024-01-15T23:34:10;6.72;;;4.15;;
43124;SDS011;49182;50.788;7.318;2024-01-15T23:39:14;11.73;;;5.13;;
43124;SDS011;49182;50.788;7.318;2024-01-15T23:44:15;15.45;;;4.80;;
43124;SDS011;49182;50.788;7.318;2024-01-15T23:49:17;7.57;;;3.80;;
43124;SDS011;49182;50.788;7.318;2024-01-15T23:54:20;7.82;;;4.43;;
43124;SDS011;49182;50.788;7.318;2024-01-15T23:59:22;11.07;;;5.80;;
